Stacja Pogody Warszawa Praga Północ 


Stacja Pogody
Warszawa Praga Północ

 Szerokość N 52° 15 '43"    Długość E 21° 01' 22"    Wysokość 89 m n.p.m.


Wschód Słońca 05:30 Górowanie Słońca 12:38 Zachód Słońca 19:47 lew
Data juliańska 2456892.319 Odległość Słońca 151259004 km Średn. kątowa Słońca 0,316°
Wschód Księżyca 02:26 Zachód Księżyca 17:51 Wiek Księżyca 27 dni Moon
Widoczność Księżyca 7,36% Odległość Księżyca 404190 km Średn. kątowa Księżyca 0,296°
Dzień krótszy od najdłuższego o: 02:30 Długość dnia 14:17 Imieniny Cezarego, Tymoteusza




Warunki pogodowe uaktualnione 22-08-2014, o godzinie 19:34
Temperatura 19.6 °C ↓ Temperatura odczuwalna 16.6 °C
Punkt rosy 9.2 °C Humidex 20.5 °C
Deszcz na godzinę 0.0 mm Wilgotność względna 51% ↑
Prędkość wiatru (średnia) 6 km/h → Prędkość wiatru (podmuch) 15 km/h
Kierunek wiatru S Skala Beaufort'a 3
Ciśnienie względne  1015 hPa Trend ciśnienia powolny spadek
Ciśnienie bezwzględne  1003 hPa Podstawa chmur 1361.2 m
METAR EPWA 221730Z 15005KT CAVOK 18/10 Q1015 NOSIG
TAF TAF EPWA 221730Z 2218/2318 18007KT CAVOK





 a

Valid XHTML 1.0 Transitional Valid CSS!